sensor_id;sensor_type;location;lat;lon;timestamp;P1;durP1;ratioP1;P2;durP2;ratioP2
15198;SDS011;7700;48.654;9.070;2023-05-07T00:01:47;3.67;;;2.80;;
15198;SDS011;7700;48.654;9.070;2023-05-07T00:04:13;4.43;;;2.75;;
15198;SDS011;7700;48.654;9.070;2023-05-07T00:06:39;2.35;;;2.15;;
15198;SDS011;7700;48.654;9.070;2023-05-07T00:09:05;2.55;;;2.35;;
15198;SDS011;7700;48.654;9.070;2023-05-07T00:11:31;4.28;;;2.60;;
15198;SDS011;7700;48.654;9.070;2023-05-07T00:13:58;3.50;;;2.47;;
15198;SDS011;7700;48.654;9.070;2023-05-07T00:16:24;3.22;;;2.80;;
15198;SDS011;7700;48.654;9.070;2023-05-07T00:18:50;3.63;;;2.72;;
15198;SDS011;7700;48.654;9.070;2023-05-07T00:21:16;3.17;;;2.80;;
15198;SDS011;7700;48.654;9.070;2023-05-07T00:23:42;3.55;;;2.45;;
15198;SDS011;7700;48.654;9.070;2023-05-07T00:26:07;4.07;;;3.20;;
15198;SDS011;7700;48.654;9.070;2023-05-07T00:28:33;3.53;;;3.10;;
15198;SDS011;7700;48.654;9.070;2023-05-07T00:30:59;4.22;;;2.70;;
15198;SDS011;7700;48.654;9.070;2023-05-07T00:33:25;3.60;;;3.15;;
15198;SDS011;7700;48.654;9.070;2023-05-07T00:35:52;3.28;;;2.97;;
15198;SDS011;7700;48.654;9.070;2023-05-07T00:38:19;3.08;;;2.85;;
15198;SDS011;7700;48.654;9.070;2023-05-07T00:40:45;3.15;;;2.53;;
15198;SDS011;7700;48.654;9.070;2023-05-07T00:43:11;3.42;;;2.90;;
15198;SDS011;7700;48.654;9.070;2023-05-07T00:45:37;4.32;;;2.55;;
15198;SDS011;7700;48.654;9.070;2023-05-07T00:48:03;4.95;;;2.80;;
15198;SDS011;7700;48.654;9.070;2023-05-07T00:50:30;3.95;;;3.35;;
15198;SDS011;7700;48.654;9.070;2023-05-07T00:52:56;3.65;;;2.67;;
15198;SDS011;7700;48.654;9.070;2023-05-07T00:55:23;2.88;;;2.67;;
15198;SDS011;7700;48.654;9.070;2023-05-07T00:57:49;3.05;;;2.75;;
15198;SDS011;7700;48.654;9.070;2023-05-07T01:00:16;2.92;;;2.72;;
15198;SDS011;7700;48.654;9.070;2023-05-07T01:02:42;3.10;;;2.80;;
15198;SDS011;7700;48.654;9.070;2023-05-07T01:05:09;3.15;;;2.88;;
15198;SDS011;7700;48.654;9.070;2023-05-07T01:07:36;4.40;;;3.10;;
15198;SDS011;7700;48.654;9.070;2023-05-07T01:10:03;3.97;;;2.70;;
15198;SDS011;7700;48.654;9.070;2023-05-07T01:12:30;3.00;;;2.80;;
15198;SDS011;7700;48.654;9.070;2023-05-07T01:14:56;3.47;;;2.75;;
15198;SDS011;7700;48.654;9.070;2023-05-07T01:17:23;2.83;;;2.63;;
15198;SDS011;7700;48.654;9.070;2023-05-07T01:19:48;3.28;;;2.70;;
15198;SDS011;7700;48.654;9.070;2023-05-07T01:22:15;3.20;;;3.00;;
15198;SDS011;7700;48.654;9.070;2023-05-07T01:24:42;7.45;;;3.10;;
15198;SDS011;7700;48.654;9.070;2023-05-07T01:27:08;3.53;;;3.22;;
15198;SDS011;7700;48.654;9.070;2023-05-07T01:29:34;3.03;;;2.78;;
15198;SDS011;7700;48.654;9.070;2023-05-07T01:32:00;3.50;;;2.90;;
15198;SDS011;7700;48.654;9.070;2023-05-07T01:34:27;3.20;;;2.55;;
15198;SDS011;7700;48.654;9.070;2023-05-07T01:36:54;4.75;;;3.00;;
15198;SDS011;7700;48.654;9.070;2023-05-07T01:39:21;3.97;;;2.70;;
15198;SDS011;7700;48.654;9.070;2023-05-07T01:41:47;3.42;;;2.88;;
15198;SDS011;7700;48.654;9.070;2023-05-07T01:44:14;3.28;;;2.88;;
15198;SDS011;7700;48.654;9.070;2023-05-07T01:46:40;3.08;;;2.88;;
15198;SDS011;7700;48.654;9.070;2023-05-07T01:49:07;3.90;;;3.33;;
15198;SDS011;7700;48.654;9.070;2023-05-07T01:51:33;3.40;;;3.10;;
15198;SDS011;7700;48.654;9.070;2023-05-07T01:53:59;6.07;;;3.40;;
15198;SDS011;7700;48.654;9.070;2023-05-07T01:56:26;3.60;;;3.30;;
15198;SDS011;7700;48.654;9.070;2023-05-07T01:58:52;3.70;;;2.88;;
15198;SDS011;7700;48.654;9.070;2023-05-07T02:01:18;4.53;;;2.63;;
15198;SDS011;7700;48.654;9.070;2023-05-07T02:03:44;3.17;;;2.38;;
15198;SDS011;7700;48.654;9.070;2023-05-07T02:06:10;3.90;;;3.00;;
15198;SDS011;7700;48.654;9.070;2023-05-07T02:08:36;5.65;;;3.28;;
15198;SDS011;7700;48.654;9.070;2023-05-07T02:11:02;2.95;;;2.75;;
15198;SDS011;7700;48.654;9.070;2023-05-07T02:13:29;3.10;;;2.80;;
15198;SDS011;7700;48.654;9.070;2023-05-07T02:15:55;2.58;;;2.40;;
15198;SDS011;7700;48.654;9.070;2023-05-07T02:18:21;3.80;;;2.60;;
15198;SDS011;7700;48.654;9.070;2023-05-07T02:20:47;3.35;;;2.80;;
15198;SDS011;7700;48.654;9.070;2023-05-07T02:23:13;4.57;;;2.90;;
15198;SDS011;7700;48.654;9.070;2023-05-07T02:25:39;2.78;;;2.58;;
15198;SDS011;7700;48.654;9.070;2023-05-07T02:28:05;3.65;;;3.35;;
15198;SDS011;7700;48.654;9.070;2023-05-07T02:30:31;2.97;;;2.58;;
15198;SDS011;7700;48.654;9.070;2023-05-07T02:32:57;3.92;;;2.95;;
15198;SDS011;7700;48.654;9.070;2023-05-07T02:35:24;3.10;;;2.78;;
15198;SDS011;7700;48.654;9.070;2023-05-07T02:37:50;3.55;;;2.78;;
15198;SDS011;7700;48.654;9.070;2023-05-07T02:40:16;2.97;;;2.60;;
15198;SDS011;7700;48.654;9.070;2023-05-07T02:42:42;3.33;;;2.90;;
15198;SDS011;7700;48.654;9.070;2023-05-07T02:45:08;5.47;;;3.05;;
15198;SDS011;7700;48.654;9.070;2023-05-07T02:47:34;3.30;;;3.08;;
15198;SDS011;7700;48.654;9.070;2023-05-07T02:50:00;4.10;;;3.03;;
15198;SDS011;7700;48.654;9.070;2023-05-07T02:52:26;3.33;;;3.03;;
15198;SDS011;7700;48.654;9.070;2023-05-07T02:54:52;3.20;;;2.90;;
15198;SDS011;7700;48.654;9.070;2023-05-07T02:57:18;5.05;;;2.90;;
15198;SDS011;7700;48.654;9.070;2023-05-07T02:59:44;2.78;;;2.47;;
15198;SDS011;7700;48.654;9.070;2023-05-07T03:02:10;3.90;;;2.75;;
15198;SDS011;7700;48.654;9.070;2023-05-07T03:04:36;3.13;;;2.45;;
15198;SDS011;7700;48.654;9.070;2023-05-07T03:07:02;3.67;;;3.30;;
15198;SDS011;7700;48.654;9.070;2023-05-07T03:09:28;3.43;;;3.13;;
15198;SDS011;7700;48.654;9.070;2023-05-07T03:11:54;4.17;;;3.43;;
15198;SDS011;7700;48.654;9.070;2023-05-07T03:14:20;3.30;;;3.00;;
15198;SDS011;7700;48.654;9.070;2023-05-07T03:16:48;6.13;;;3.77;;
15198;SDS011;7700;48.654;9.070;2023-05-07T03:19:14;4.00;;;3.60;;
15198;SDS011;7700;48.654;9.070;2023-05-07T03:21:40;5.33;;;3.50;;
15198;SDS011;7700;48.654;9.070;2023-05-07T03:24:06;4.20;;;3.27;;
15198;SDS011;7700;48.654;9.070;2023-05-07T03:26:32;3.30;;;3.00;;
15198;SDS011;7700;48.654;9.070;2023-05-07T03:28:58;3.93;;;3.63;;
15198;SDS011;7700;48.654;9.070;2023-05-07T03:31:25;6.57;;;3.83;;
15198;SDS011;7700;48.654;9.070;2023-05-07T03:33:55;4.67;;;4.23;;
15198;SDS011;7700;48.654;9.070;2023-05-07T03:36:21;5.97;;;4.67;;
15198;SDS011;7700;48.654;9.070;2023-05-07T03:38:48;5.80;;;4.37;;
15198;SDS011;7700;48.654;9.070;2023-05-07T03:41:14;5.27;;;4.77;;
15198;SDS011;7700;48.654;9.070;2023-05-07T03:43:40;4.60;;;4.13;;
15198;SDS011;7700;48.654;9.070;2023-05-07T03:46:06;5.07;;;4.63;;
15198;SDS011;7700;48.654;9.070;2023-05-07T03:48:32;4.43;;;4.03;;
15198;SDS011;7700;48.654;9.070;2023-05-07T03:50:58;4.87;;;4.13;;
15198;SDS011;7700;48.654;9.070;2023-05-07T03:53:24;4.53;;;4.13;;
15198;SDS011;7700;48.654;9.070;2023-05-07T03:55:50;4.40;;;4.10;;
15198;SDS011;7700;48.654;9.070;2023-05-07T03:58:16;5.25;;;4.72;;
15198;SDS011;7700;48.654;9.070;2023-05-07T04:00:42;4.55;;;3.92;;
15198;SDS011;7700;48.654;9.070;2023-05-07T04:03:08;5.20;;;4.53;;
15198;SDS011;7700;48.654;9.070;2023-05-07T04:05:34;4.33;;;3.93;;
15198;SDS011;7700;48.654;9.070;2023-05-07T04:08:00;4.50;;;4.10;;
15198;SDS011;7700;48.654;9.070;2023-05-07T04:10:27;4.20;;;3.70;;
15198;SDS011;7700;48.654;9.070;2023-05-07T04:12:53;4.43;;;3.97;;
15198;SDS011;7700;48.654;9.070;2023-05-07T04:15:19;4.28;;;3.88;;
15198;SDS011;7700;48.654;9.070;2023-05-07T04:17:45;4.33;;;3.87;;
15198;SDS011;7700;48.654;9.070;2023-05-07T04:20:13;4.05;;;3.63;;
15198;SDS011;7700;48.654;9.070;2023-05-07T04:22:40;5.00;;;3.23;;
15198;SDS011;7700;48.654;9.070;2023-05-07T04:25:06;5.43;;;3.50;;
15198;SDS011;7700;48.654;9.070;2023-05-07T04:27:34;4.23;;;3.50;;
15198;SDS011;7700;48.654;9.070;2023-05-07T04:30:00;6.63;;;3.33;;
15198;SDS011;7700;48.654;9.070;2023-05-07T04:32:26;4.37;;;3.90;;
15198;SDS011;7700;48.654;9.070;2023-05-07T04:34:54;3.50;;;3.20;;
15198;SDS011;7700;48.654;9.070;2023-05-07T04:37:20;4.73;;;3.87;;
15198;SDS011;7700;48.654;9.070;2023-05-07T04:39:46;3.50;;;3.20;;
15198;SDS011;7700;48.654;9.070;2023-05-07T04:42:15;4.23;;;3.87;;
15198;SDS011;7700;48.654;9.070;2023-05-07T04:44:43;4.43;;;4.03;;
15198;SDS011;7700;48.654;9.070;2023-05-07T04:47:09;4.70;;;4.10;;
15198;SDS011;7700;48.654;9.070;2023-05-07T04:49:36;5.00;;;4.25;;
15198;SDS011;7700;48.654;9.070;2023-05-07T04:52:02;5.30;;;4.80;;
15198;SDS011;7700;48.654;9.070;2023-05-07T04:54:28;5.23;;;4.17;;
15198;SDS011;7700;48.654;9.070;2023-05-07T04:56:54;4.80;;;4.30;;
15198;SDS011;7700;48.654;9.070;2023-05-07T04:59:20;6.37;;;4.67;;
15198;SDS011;7700;48.654;9.070;2023-05-07T05:01:46;5.10;;;4.00;;
15198;SDS011;7700;48.654;9.070;2023-05-07T05:04:12;4.63;;;4.03;;
15198;SDS011;7700;48.654;9.070;2023-05-07T05:06:38;4.70;;;4.30;;
15198;SDS011;7700;48.654;9.070;2023-05-07T05:09:04;4.77;;;4.30;;
15198;SDS011;7700;48.654;9.070;2023-05-07T05:11:31;4.10;;;3.80;;
15198;SDS011;7700;48.654;9.070;2023-05-07T05:13:57;3.90;;;3.60;;
15198;SDS011;7700;48.654;9.070;2023-05-07T05:16:22;4.13;;;3.40;;
15198;SDS011;7700;48.654;9.070;2023-05-07T05:18:48;5.27;;;3.90;;
15198;SDS011;7700;48.654;9.070;2023-05-07T05:21:16;4.20;;;3.80;;
15198;SDS011;7700;48.654;9.070;2023-05-07T05:23:42;4.67;;;4.07;;
15198;SDS011;7700;48.654;9.070;2023-05-07T05:26:08;4.23;;;3.93;;
15198;SDS011;7700;48.654;9.070;2023-05-07T05:28:34;5.37;;;4.43;;
15198;SDS011;7700;48.654;9.070;2023-05-07T05:31:00;6.82;;;4.97;;
15198;SDS011;7700;48.654;9.070;2023-05-07T05:33:26;5.30;;;4.67;;
15198;SDS011;7700;48.654;9.070;2023-05-07T05:35:53;5.38;;;4.97;;
15198;SDS011;7700;48.654;9.070;2023-05-07T05:38:19;4.70;;;4.30;;
15198;SDS011;7700;48.654;9.070;2023-05-07T05:40:45;7.13;;;5.07;;
15198;SDS011;7700;48.654;9.070;2023-05-07T05:43:12;4.47;;;4.18;;
15198;SDS011;7700;48.654;9.070;2023-05-07T05:45:38;4.07;;;3.78;;
15198;SDS011;7700;48.654;9.070;2023-05-07T05:48:04;4.63;;;4.22;;
15198;SDS011;7700;48.654;9.070;2023-05-07T05:50:29;4.65;;;4.32;;
15198;SDS011;7700;48.654;9.070;2023-05-07T05:52:55;4.97;;;4.05;;
15198;SDS011;7700;48.654;9.070;2023-05-07T05:55:22;4.70;;;4.30;;
15198;SDS011;7700;48.654;9.070;2023-05-07T05:57:48;4.90;;;4.43;;
15198;SDS011;7700;48.654;9.070;2023-05-07T06:00:15;4.97;;;4.57;;
15198;SDS011;7700;48.654;9.070;2023-05-07T06:02:41;4.95;;;3.85;;
15198;SDS011;7700;48.654;9.070;2023-05-07T06:05:07;7.80;;;3.83;;
15198;SDS011;7700;48.654;9.070;2023-05-07T06:07:33;3.38;;;3.17;;
15198;SDS011;7700;48.654;9.070;2023-05-07T06:10:00;3.60;;;3.33;;
15198;SDS011;7700;48.654;9.070;2023-05-07T06:12:26;4.72;;;4.15;;
15198;SDS011;7700;48.654;9.070;2023-05-07T06:14:52;4.43;;;3.42;;
15198;SDS011;7700;48.654;9.070;2023-05-07T06:17:18;3.80;;;3.50;;
15198;SDS011;7700;48.654;9.070;2023-05-07T06:19:43;4.28;;;3.30;;
15198;SDS011;7700;48.654;9.070;2023-05-07T06:22:09;3.22;;;2.90;;
15198;SDS011;7700;48.654;9.070;2023-05-07T06:24:35;5.53;;;3.40;;
15198;SDS011;7700;48.654;9.070;2023-05-07T06:27:01;3.90;;;3.30;;
15198;SDS011;7700;48.654;9.070;2023-05-07T06:29:28;3.78;;;2.97;;
15198;SDS011;7700;48.654;9.070;2023-05-07T06:31:56;3.40;;;2.97;;
15198;SDS011;7700;48.654;9.070;2023-05-07T06:34:22;4.68;;;3.00;;
15198;SDS011;7700;48.654;9.070;2023-05-07T06:36:48;4.07;;;3.10;;
15198;SDS011;7700;48.654;9.070;2023-05-07T06:39:14;3.38;;;3.17;;
15198;SDS011;7700;48.654;9.070;2023-05-07T06:41:40;2.83;;;2.63;;
15198;SDS011;7700;48.654;9.070;2023-05-07T06:44:06;3.55;;;3.25;;
15198;SDS011;7700;48.654;9.070;2023-05-07T06:46:32;2.90;;;2.67;;
15198;SDS011;7700;48.654;9.070;2023-05-07T06:48:58;3.80;;;2.90;;
15198;SDS011;7700;48.654;9.070;2023-05-07T06:51:27;3.28;;;3.08;;
15198;SDS011;7700;48.654;9.070;2023-05-07T06:53:54;2.97;;;2.70;;
15198;SDS011;7700;48.654;9.070;2023-05-07T06:56:19;2.95;;;2.75;;
15198;SDS011;7700;48.654;9.070;2023-05-07T06:58:46;3.28;;;3.00;;
15198;SDS011;7700;48.654;9.070;2023-05-07T07:01:11;3.38;;;3.08;;
15198;SDS011;7700;48.654;9.070;2023-05-07T07:03:37;2.80;;;2.60;;
15198;SDS011;7700;48.654;9.070;2023-05-07T07:06:03;3.40;;;3.17;;
15198;SDS011;7700;48.654;9.070;2023-05-07T07:08:29;3.13;;;2.80;;
15198;SDS011;7700;48.654;9.070;2023-05-07T07:10:55;2.33;;;2.13;;
15198;SDS011;7700;48.654;9.070;2023-05-07T07:13:23;3.28;;;2.72;;
15198;SDS011;7700;48.654;9.070;2023-05-07T07:15:54;3.55;;;2.67;;
15198;SDS011;7700;48.654;9.070;2023-05-07T07:18:20;4.50;;;2.88;;
15198;SDS011;7700;48.654;9.070;2023-05-07T07:20:46;2.60;;;2.40;;
15198;SDS011;7700;48.654;9.070;2023-05-07T07:23:12;3.45;;;2.88;;
15198;SDS011;7700;48.654;9.070;2023-05-07T07:25:38;2.60;;;2.40;;
15198;SDS011;7700;48.654;9.070;2023-05-07T07:28:05;2.70;;;2.50;;
15198;SDS011;7700;48.654;9.070;2023-05-07T07:30:31;3.22;;;2.92;;
15198;SDS011;7700;48.654;9.070;2023-05-07T07:32:57;2.92;;;2.72;;
15198;SDS011;7700;48.654;9.070;2023-05-07T07:35:27;2.42;;;2.22;;
15198;SDS011;7700;48.654;9.070;2023-05-07T07:37:53;3.85;;;2.63;;
15198;SDS011;7700;48.654;9.070;2023-05-07T07:40:19;3.15;;;2.53;;
15198;SDS011;7700;48.654;9.070;2023-05-07T07:42:45;2.40;;;2.20;;
15198;SDS011;7700;48.654;9.070;2023-05-07T07:45:11;3.15;;;2.25;;
15198;SDS011;7700;48.654;9.070;2023-05-07T07:47:37;2.53;;;2.33;;
15198;SDS011;7700;48.654;9.070;2023-05-07T07:50:04;2.38;;;2.03;;
15198;SDS011;7700;48.654;9.070;2023-05-07T07:52:30;2.35;;;2.15;;
15198;SDS011;7700;48.654;9.070;2023-05-07T07:54:56;2.22;;;2.03;;
15198;SDS011;7700;48.654;9.070;2023-05-07T07:57:23;3.67;;;2.40;;
15198;SDS011;7700;48.654;9.070;2023-05-07T07:59:49;2.70;;;2.28;;
15198;SDS011;7700;48.654;9.070;2023-05-07T08:02:16;2.55;;;2.13;;
15198;SDS011;7700;48.654;9.070;2023-05-07T08:04:42;2.28;;;2.08;;
15198;SDS011;7700;48.654;9.070;2023-05-07T08:07:11;2.08;;;1.88;;
15198;SDS011;7700;48.654;9.070;2023-05-07T08:09:38;3.22;;;2.35;;
15198;SDS011;7700;48.654;9.070;2023-05-07T08:12:04;2.40;;;2.08;;
15198;SDS011;7700;48.654;9.070;2023-05-07T08:14:31;2.33;;;1.95;;
15198;SDS011;7700;48.654;9.070;2023-05-07T08:16:57;2.20;;;2.00;;
15198;SDS011;7700;48.654;9.070;2023-05-07T08:19:22;2.53;;;2.22;;
15198;SDS011;7700;48.654;9.070;2023-05-07T08:21:49;3.08;;;2.38;;
15198;SDS011;7700;48.654;9.070;2023-05-07T08:24:22;3.42;;;2.33;;
15198;SDS011;7700;48.654;9.070;2023-05-07T08:26:48;2.50;;;1.95;;
15198;SDS011;7700;48.654;9.070;2023-05-07T08:29:14;2.95;;;1.92;;
15198;SDS011;7700;48.654;9.070;2023-05-07T08:31:40;2.50;;;2.10;;
15198;SDS011;7700;48.654;9.070;2023-05-07T08:34:06;2.17;;;1.90;;
15198;SDS011;7700;48.654;9.070;2023-05-07T08:36:32;1.88;;;1.77;;
15198;SDS011;7700;48.654;9.070;2023-05-07T08:38:59;2.00;;;1.73;;
15198;SDS011;7700;48.654;9.070;2023-05-07T08:41:25;2.80;;;1.80;;
15198;SDS011;7700;48.654;9.070;2023-05-07T08:43:51;1.90;;;1.80;;
15198;SDS011;7700;48.654;9.070;2023-05-07T08:46:19;1.88;;;1.77;;
15198;SDS011;7700;48.654;9.070;2023-05-07T08:48:47;1.75;;;1.65;;
15198;SDS011;7700;48.654;9.070;2023-05-07T08:51:15;4.30;;;1.95;;
15198;SDS011;7700;48.654;9.070;2023-05-07T08:53:42;4.88;;;1.70;;
15198;SDS011;7700;48.654;9.070;2023-05-07T08:56:08;1.55;;;1.40;;
15198;SDS011;7700;48.654;9.070;2023-05-07T08:58:34;1.45;;;1.38;;
15198;SDS011;7700;48.654;9.070;2023-05-07T09:01:07;1.73;;;1.63;;
15198;SDS011;7700;48.654;9.070;2023-05-07T09:03:33;2.00;;;1.70;;
15198;SDS011;7700;48.654;9.070;2023-05-07T09:05:59;1.60;;;1.50;;
15198;SDS011;7700;48.654;9.070;2023-05-07T09:08:26;1.73;;;1.63;;
15198;SDS011;7700;48.654;9.070;2023-05-07T09:10:52;3.42;;;1.92;;
15198;SDS011;7700;48.654;9.070;2023-05-07T09:13:18;5.57;;;2.05;;
15198;SDS011;7700;48.654;9.070;2023-05-07T09:15:44;2.20;;;1.88;;
15198;SDS011;7700;48.654;9.070;2023-05-07T09:18:10;2.65;;;1.60;;
15198;SDS011;7700;48.654;9.070;2023-05-07T09:20:37;1.90;;;1.70;;
15198;SDS011;7700;48.654;9.070;2023-05-07T09:23:03;2.00;;;1.90;;
15198;SDS011;7700;48.654;9.070;2023-05-07T09:25:30;2.47;;;2.05;;
15198;SDS011;7700;48.654;9.070;2023-05-07T09:27:56;3.33;;;2.03;;
15198;SDS011;7700;48.654;9.070;2023-05-07T09:30:22;1.98;;;1.77;;
15198;SDS011;7700;48.654;9.070;2023-05-07T09:32:48;4.03;;;1.90;;
15198;SDS011;7700;48.654;9.070;2023-05-07T09:35:15;3.10;;;2.00;;
15198;SDS011;7700;48.654;9.070;2023-05-07T09:37:46;2.08;;;1.80;;
15198;SDS011;7700;48.654;9.070;2023-05-07T09:40:22;1.70;;;1.60;;
15198;SDS011;7700;48.654;9.070;2023-05-07T09:42:48;1.75;;;1.40;;
15198;SDS011;7700;48.654;9.070;2023-05-07T09:45:15;4.13;;;1.98;;
15198;SDS011;7700;48.654;9.070;2023-05-07T09:47:41;6.20;;;2.13;;
15198;SDS011;7700;48.654;9.070;2023-05-07T09:50:12;2.83;;;1.95;;
15198;SDS011;7700;48.654;9.070;2023-05-07T09:52:38;15.27;;;2.90;;
15198;SDS011;7700;48.654;9.070;2023-05-07T09:55:05;2.13;;;1.90;;
15198;SDS011;7700;48.654;9.070;2023-05-07T09:57:31;2.22;;;2.03;;
15198;SDS011;7700;48.654;9.070;2023-05-07T09:59:58;2.25;;;1.73;;
15198;SDS011;7700;48.654;9.070;2023-05-07T10:03:32;3.00;;;1.85;;
15198;SDS011;7700;48.654;9.070;2023-05-07T10:05:59;2.45;;;1.95;;
15198;SDS011;7700;48.654;9.070;2023-05-07T10:08:26;2.92;;;1.90;;
15198;SDS011;7700;48.654;9.070;2023-05-07T10:10:52;2.08;;;1.88;;
15198;SDS011;7700;48.654;9.070;2023-05-07T10:13:18;3.80;;;1.77;;
15198;SDS011;7700;48.654;9.070;2023-05-07T10:15:44;1.83;;;1.73;;
15198;SDS011;7700;48.654;9.070;2023-05-07T10:18:10;2.38;;;1.92;;
15198;SDS011;7700;48.654;9.070;2023-05-07T10:20:37;3.33;;;1.88;;
15198;SDS011;7700;48.654;9.070;2023-05-07T10:23:04;3.42;;;1.75;;
15198;SDS011;7700;48.654;9.070;2023-05-07T10:25:31;2.55;;;1.95;;
15198;SDS011;7700;48.654;9.070;2023-05-07T10:27:59;3.80;;;2.03;;
15198;SDS011;7700;48.654;9.070;2023-05-07T10:30:38;1.75;;;1.65;;
15198;SDS011;7700;48.654;9.070;2023-05-07T10:33:06;2.60;;;2.40;;
15198;SDS011;7700;48.654;9.070;2023-05-07T10:35:41;2.83;;;1.95;;
15198;SDS011;7700;48.654;9.070;2023-05-07T10:38:08;3.35;;;2.08;;
15198;SDS011;7700;48.654;9.070;2023-05-07T10:40:34;2.20;;;2.00;;
15198;SDS011;7700;48.654;9.070;2023-05-07T10:43:02;2.00;;;1.80;;
15198;SDS011;7700;48.654;9.070;2023-05-07T10:45:30;2.15;;;1.95;;
15198;SDS011;7700;48.654;9.070;2023-05-07T10:50:35;2.00;;;1.85;;
15198;SDS011;7700;48.654;9.070;2023-05-07T10:55:42;2.13;;;1.92;;
15198;SDS011;7700;48.654;9.070;2023-05-07T10:58:27;1.65;;;1.52;;
15198;SDS011;7700;48.654;9.070;2023-05-07T11:00:57;1.90;;;1.70;;
15198;SDS011;7700;48.654;9.070;2023-05-07T11:03:24;3.33;;;1.60;;
15198;SDS011;7700;48.654;9.070;2023-05-07T11:06:09;2.45;;;1.88;;
15198;SDS011;7700;48.654;9.070;2023-05-07T11:11:38;1.98;;;1.80;;
15198;SDS011;7700;48.654;9.070;2023-05-07T11:14:06;2.25;;;2.03;;
15198;SDS011;7700;48.654;9.070;2023-05-07T11:16:32;2.88;;;1.50;;
15198;SDS011;7700;48.654;9.070;2023-05-07T11:19:01;1.92;;;1.27;;
15198;SDS011;7700;48.654;9.070;2023-05-07T11:21:40;2.10;;;1.90;;
15198;SDS011;7700;48.654;9.070;2023-05-07T11:24:09;2.20;;;1.83;;
15198;SDS011;7700;48.654;9.070;2023-05-07T11:29:11;3.05;;;1.75;;
15198;SDS011;7700;48.654;9.070;2023-05-07T11:31:37;2.05;;;1.52;;
15198;SDS011;7700;48.654;9.070;2023-05-07T11:34:03;1.92;;;1.60;;
15198;SDS011;7700;48.654;9.070;2023-05-07T11:36:31;3.85;;;1.70;;
15198;SDS011;7700;48.654;9.070;2023-05-07T11:38:57;2.17;;;1.50;;
15198;SDS011;7700;48.654;9.070;2023-05-07T11:41:23;2.10;;;1.40;;
15198;SDS011;7700;48.654;9.070;2023-05-07T11:43:58;1.60;;;1.50;;
15198;SDS011;7700;48.654;9.070;2023-05-07T11:46:25;3.70;;;1.60;;
15198;SDS011;7700;48.654;9.070;2023-05-07T11:48:52;3.25;;;1.40;;
15198;SDS011;7700;48.654;9.070;2023-05-07T11:51:21;1.55;;;1.42;;
15198;SDS011;7700;48.654;9.070;2023-05-07T11:53:47;2.55;;;1.60;;
15198;SDS011;7700;48.654;9.070;2023-05-07T11:56:14;3.72;;;1.40;;
15198;SDS011;7700;48.654;9.070;2023-05-07T11:58:41;1.50;;;1.40;;
15198;SDS011;7700;48.654;9.070;2023-05-07T12:01:07;3.22;;;1.75;;
15198;SDS011;7700;48.654;9.070;2023-05-07T12:03:34;4.30;;;2.03;;
15198;SDS011;7700;48.654;9.070;2023-05-07T12:06:02;2.05;;;1.88;;
15198;SDS011;7700;48.654;9.070;2023-05-07T12:08:28;2.88;;;1.80;;
15198;SDS011;7700;48.654;9.070;2023-05-07T12:10:54;2.38;;;1.98;;
15198;SDS011;7700;48.654;9.070;2023-05-07T12:13:21;1.67;;;1.55;;
15198;SDS011;7700;48.654;9.070;2023-05-07T12:15:50;1.50;;;1.40;;
15198;SDS011;7700;48.654;9.070;2023-05-07T12:18:17;1.60;;;1.50;;
15198;SDS011;7700;48.654;9.070;2023-05-07T12:20:43;2.75;;;1.70;;
15198;SDS011;7700;48.654;9.070;2023-05-07T12:23:10;3.15;;;1.75;;
15198;SDS011;7700;48.654;9.070;2023-05-07T12:25:36;6.65;;;3.17;;
15198;SDS011;7700;48.654;9.070;2023-05-07T12:28:02;46.45;;;5.80;;
15198;SDS011;7700;48.654;9.070;2023-05-07T12:30:30;7.10;;;3.83;;
15198;SDS011;7700;48.654;9.070;2023-05-07T12:32:56;9.65;;;4.03;;
15198;SDS011;7700;48.654;9.070;2023-05-07T12:35:28;11.68;;;4.97;;
15198;SDS011;7700;48.654;9.070;2023-05-07T12:37:55;10.15;;;5.50;;
15198;SDS011;7700;48.654;9.070;2023-05-07T12:40:21;7.13;;;3.90;;
15198;SDS011;7700;48.654;9.070;2023-05-07T12:42:47;6.30;;;3.88;;
15198;SDS011;7700;48.654;9.070;2023-05-07T12:45:19;5.88;;;3.95;;
15198;SDS011;7700;48.654;9.070;2023-05-07T12:47:45;7.47;;;4.00;;
15198;SDS011;7700;48.654;9.070;2023-05-07T12:50:12;5.35;;;3.40;;
15198;SDS011;7700;48.654;9.070;2023-05-07T12:52:39;5.70;;;4.40;;
15198;SDS011;7700;48.654;9.070;2023-05-07T12:55:06;4.30;;;3.13;;
15198;SDS011;7700;48.654;9.070;2023-05-07T12:57:38;5.20;;;1.90;;
15198;SDS011;7700;48.654;9.070;2023-05-07T13:00:06;2.13;;;1.92;;
15198;SDS011;7700;48.654;9.070;2023-05-07T13:02:33;6.43;;;3.75;;
15198;SDS011;7700;48.654;9.070;2023-05-07T13:04:59;4.80;;;3.47;;
15198;SDS011;7700;48.654;9.070;2023-05-07T13:07:25;6.50;;;4.30;;
15198;SDS011;7700;48.654;9.070;2023-05-07T13:09:51;4.55;;;3.88;;
15198;SDS011;7700;48.654;9.070;2023-05-07T13:12:17;4.68;;;3.35;;
15198;SDS011;7700;48.654;9.070;2023-05-07T13:14:43;4.40;;;3.58;;
15198;SDS011;7700;48.654;9.070;2023-05-07T13:17:09;6.05;;;4.07;;
15198;SDS011;7700;48.654;9.070;2023-05-07T13:19:35;7.32;;;4.35;;
15198;SDS011;7700;48.654;9.070;2023-05-07T13:22:02;6.93;;;4.35;;
15198;SDS011;7700;48.654;9.070;2023-05-07T13:24:28;6.75;;;4.35;;
15198;SDS011;7700;48.654;9.070;2023-05-07T13:26:54;3.80;;;3.20;;
15198;SDS011;7700;48.654;9.070;2023-05-07T13:29:20;6.13;;;3.25;;
15198;SDS011;7700;48.654;9.070;2023-05-07T13:31:53;4.45;;;2.83;;
15198;SDS011;7700;48.654;9.070;2023-05-07T13:34:20;3.60;;;3.05;;
15198;SDS011;7700;48.654;9.070;2023-05-07T13:36:46;3.75;;;2.85;;
15198;SDS011;7700;48.654;9.070;2023-05-07T13:39:12;3.65;;;2.50;;
15198;SDS011;7700;48.654;9.070;2023-05-07T13:41:37;3.45;;;2.70;;
15198;SDS011;7700;48.654;9.070;2023-05-07T13:44:04;2.97;;;2.70;;
15198;SDS011;7700;48.654;9.070;2023-05-07T13:46:29;3.38;;;2.78;;
15198;SDS011;7700;48.654;9.070;2023-05-07T13:48:56;3.35;;;3.05;;
15198;SDS011;7700;48.654;9.070;2023-05-07T13:51:22;3.80;;;3.42;;
15198;SDS011;7700;48.654;9.070;2023-05-07T13:53:47;5.18;;;4.03;;
15198;SDS011;7700;48.654;9.070;2023-05-07T13:56:14;5.00;;;4.50;;
15198;SDS011;7700;48.654;9.070;2023-05-07T13:58:40;5.97;;;4.25;;
15198;SDS011;7700;48.654;9.070;2023-05-07T14:01:06;3.80;;;3.08;;
15198;SDS011;7700;48.654;9.070;2023-05-07T14:03:32;3.88;;;3.17;;
15198;SDS011;7700;48.654;9.070;2023-05-07T14:05:59;3.55;;;3.25;;
15198;SDS011;7700;48.654;9.070;2023-05-07T14:08:26;5.30;;;4.00;;
15198;SDS011;7700;48.654;9.070;2023-05-07T14:10:52;3.13;;;2.90;;
15198;SDS011;7700;48.654;9.070;2023-05-07T14:13:18;3.63;;;3.33;;
15198;SDS011;7700;48.654;9.070;2023-05-07T14:15:44;4.70;;;3.35;;
15198;SDS011;7700;48.654;9.070;2023-05-07T14:18:12;4.40;;;3.40;;
15198;SDS011;7700;48.654;9.070;2023-05-07T14:20:38;7.15;;;3.00;;
15198;SDS011;7700;48.654;9.070;2023-05-07T14:23:04;7.72;;;3.75;;
15198;SDS011;7700;48.654;9.070;2023-05-07T14:25:30;5.57;;;4.07;;
15198;SDS011;7700;48.654;9.070;2023-05-07T14:27:56;4.40;;;3.22;;
15198;SDS011;7700;48.654;9.070;2023-05-07T14:30:22;3.95;;;3.47;;
15198;SDS011;7700;48.654;9.070;2023-05-07T14:32:49;5.13;;;3.10;;
15198;SDS011;7700;48.654;9.070;2023-05-07T14:35:15;4.30;;;3.80;;
15198;SDS011;7700;48.654;9.070;2023-05-07T14:37:41;4.82;;;4.07;;
15198;SDS011;7700;48.654;9.070;2023-05-07T14:40:07;5.63;;;3.47;;
15198;SDS011;7700;48.654;9.070;2023-05-07T14:42:33;6.22;;;4.60;;
15198;SDS011;7700;48.654;9.070;2023-05-07T14:44:59;8.93;;;7.43;;
15198;SDS011;7700;48.654;9.070;2023-05-07T14:47:25;7.75;;;5.10;;
15198;SDS011;7700;48.654;9.070;2023-05-07T14:49:51;5.00;;;4.50;;
15198;SDS011;7700;48.654;9.070;2023-05-07T14:52:18;5.97;;;5.38;;
15198;SDS011;7700;48.654;9.070;2023-05-07T14:54:44;5.47;;;4.50;;
15198;SDS011;7700;48.654;9.070;2023-05-07T14:57:10;4.28;;;3.88;;
15198;SDS011;7700;48.654;9.070;2023-05-07T14:59:38;4.15;;;3.80;;
15198;SDS011;7700;48.654;9.070;2023-05-07T15:02:05;5.78;;;4.18;;
15198;SDS011;7700;48.654;9.070;2023-05-07T15:04:32;4.03;;;3.70;;
15198;SDS011;7700;48.654;9.070;2023-05-07T15:06:58;4.28;;;3.88;;
15198;SDS011;7700;48.654;9.070;2023-05-07T15:09:24;5.63;;;3.83;;